Time;durP1;ratioP1;P1;durP2;ratioP2;P2;SDS_P1;SDS_P2;PMS_P1;PMS_P2;Temp;Humidity;BMP_temperature;BMP_pressure;BME280_temperature;BME280_humidity;BME280_pressure;Samples;Min_cycle;Max_cycle;Signal;HPM_P1;HPM_P2
2023/03/25 00:00:58;;;;;;;4.85;1.30;;;9.70;99.90;;;;;;5065276;28;20059;-86
2023/03/25 00:03:29;;;;;;;7.38;1.20;;;9.70;99.90;;;;;;5059139;28;20254;-85
2023/03/25 00:05:56;;;;;;;3.90;1.20;;;9.70;99.90;;;;;;5065104;28;20085;-85
2023/03/25 00:08:25;;;;;;;3.30;1.20;;;9.60;99.90;;;;;;5057252;28;20039;-84
2023/03/25 00:10:53;;;;;;;7.82;1.67;;;9.70;99.90;;;;;;5063959;28;20020;-84
2023/03/25 00:13:20;;;;;;;3.67;1.02;;;9.70;99.90;;;;;;5059533;28;20028;-84
2023/03/25 00:15:46;;;;;;;5.07;1.48;;;9.70;99.90;;;;;;5061315;28;20050;-84
2023/03/25 00:18:13;;;;;;;5.07;1.25;;;9.70;99.90;;;;;;5064516;28;20036;-84
2023/03/25 00:20:44;;;;;;;2.85;1.00;;;9.70;99.90;;;;;;5065475;28;20031;-85
2023/03/25 00:23:13;;;;;;;4.90;1.27;;;9.70;99.90;;;;;;5059645;28;20029;-84
2023/03/25 00:25:38;;;;;;;7.63;1.63;;;9.70;99.90;;;;;;5059617;28;21108;-85
2023/03/25 00:28:04;;;;;;;5.30;1.63;;;9.70;99.90;;;;;;5058061;28;20043;-84
2023/03/25 00:30:30;;;;;;;5.85;1.40;;;9.70;99.90;;;;;;5062252;28;20031;-85
2023/03/25 00:33:00;;;;;;;6.93;1.70;;;9.70;99.90;;;;;;5062985;28;20082;-84
2023/03/25 00:35:27;;;;;;;8.48;1.60;;;9.70;99.90;;;;;;5062002;28;20063;-83
2023/03/25 00:37:58;;;;;;;4.88;1.30;;;9.70;99.90;;;;;;5064199;28;20017;-84
2023/03/25 00:40:27;;;;;;;5.13;1.45;;;9.70;99.90;;;;;;5056874;28;20861;-84
2023/03/25 00:42:53;;;;;;;6.97;1.60;;;9.70;99.90;;;;;;5064185;28;20489;-85
2023/03/25 00:45:18;;;;;;;6.70;1.92;;;9.70;99.90;;;;;;5062685;28;20099;-85
2023/03/25 00:47:44;;;;;;;6.68;1.60;;;9.70;99.90;;;;;;5056253;28;20124;-85
2023/03/25 00:50:10;;;;;;;5.75;1.40;;;9.70;99.90;;;;;;5062747;28;20029;-85
2023/03/25 00:52:36;;;;;;;7.18;1.40;;;9.70;99.90;;;;;;5061264;28;20081;-84
2023/03/25 00:55:03;;;;;;;5.60;1.38;;;9.70;99.90;;;;;;5057144;28;20028;-83
2023/03/25 00:57:29;;;;;;;8.02;1.42;;;9.80;99.90;;;;;;5056871;28;20028;-84
2023/03/25 00:59:55;;;;;;;5.25;1.63;;;9.70;99.90;;;;;;5056965;28;20040;-85
2023/03/25 01:02:21;;;;;;;5.82;1.65;;;9.80;99.90;;;;;;5061495;28;20024;-85
2023/03/25 01:04:48;;;;;;;6.72;1.50;;;9.80;99.90;;;;;;5077075;28;20135;-84
2023/03/25 01:07:15;;;;;;;3.92;1.55;;;9.80;99.90;;;;;;5062274;28;20040;-83
2023/03/25 01:09:41;;;;;;;6.32;1.50;;;9.80;99.90;;;;;;5061247;28;20059;-84
2023/03/25 01:12:07;;;;;;;7.65;1.80;;;9.70;99.90;;;;;;5062876;28;20024;-84
2023/03/25 01:14:33;;;;;;;4.43;1.52;;;9.80;99.90;;;;;;5058107;28;20025;-84
2023/03/25 01:16:59;;;;;;;8.63;1.92;;;9.80;99.90;;;;;;5061172;28;20501;-84
2023/03/25 01:19:25;;;;;;;10.55;2.13;;;9.80;99.90;;;;;;5057146;28;20024;-82
2023/03/25 01:21:51;;;;;;;7.40;1.85;;;9.80;99.90;;;;;;5057774;28;20029;-85
2023/03/25 01:24:17;;;;;;;7.90;1.45;;;9.80;99.90;;;;;;5063264;28;20513;-84
2023/03/25 01:26:44;;;;;;;7.75;1.40;;;9.70;99.90;;;;;;5063409;28;20036;-84
2023/03/25 01:29:15;;;;;;;10.88;2.38;;;9.80;99.90;;;;;;5063131;28;20940;-85
2023/03/25 01:31:41;;;;;;;6.55;1.75;;;9.70;99.90;;;;;;5064101;28;20039;-84
2023/03/25 01:34:08;;;;;;;9.18;2.00;;;9.70;99.90;;;;;;5056889;28;20576;-85
2023/03/25 01:36:35;;;;;;;9.48;1.60;;;9.70;99.90;;;;;;5057493;28;20115;-84
2023/03/25 01:39:03;;;;;;;7.57;1.58;;;9.80;99.90;;;;;;5060777;28;20107;-83
2023/03/25 01:41:34;;;;;;;6.97;1.40;;;9.70;99.90;;;;;;5060657;28;20028;-83
2023/03/25 01:44:20;;;;;;;10.45;2.10;;;9.70;99.90;;;;;;5057658;28;20025;-83
2023/03/25 01:46:47;;;;;;;5.90;1.60;;;9.70;99.90;;;;;;5060200;28;20040;-85
2023/03/25 01:49:20;;;;;;;7.50;1.45;;;9.70;99.90;;;;;;5055303;28;20043;-83
2023/03/25 01:51:48;;;;;;;5.82;1.20;;;9.80;99.90;;;;;;5061273;28;20089;-85
2023/03/25 01:54:17;;;;;;;9.88;1.40;;;9.80;99.90;;;;;;5056449;28;20028;-83
2023/03/25 01:56:46;;;;;;;5.82;1.45;;;9.70;99.90;;;;;;5060959;28;20443;-84
2023/03/25 01:59:14;;;;;;;9.68;1.63;;;9.80;99.90;;;;;;5057395;28;20028;-85
2023/03/25 02:01:40;;;;;;;10.25;2.17;;;9.80;99.90;;;;;;5058794;28;20363;-84
2023/03/25 02:04:11;;;;;;;8.02;1.70;;;9.70;99.90;;;;;;5078807;28;20115;-84
2023/03/25 02:06:52;;;;;;;6.68;1.30;;;9.50;99.90;;;;;;5064316;28;20060;-84
2023/03/25 02:09:21;;;;;;;4.53;1.17;;;9.40;99.90;;;;;;5060024;28;20039;-84
2023/03/25 02:11:47;;;;;;;6.50;1.13;;;9.30;99.90;;;;;;5060361;28;20039;-85
2023/03/25 02:14:17;;;;;;;7.68;1.25;;;9.20;99.90;;;;;;5063550;28;20036;-84
2023/03/25 02:17:20;;;;;;;7.07;1.20;;;9.20;99.90;;;;;;5057650;28;20031;-84
2023/03/25 02:20:12;;;;;;;6.35;1.52;;;9.10;99.90;;;;;;5079782;28;20036;-85
2023/03/25 02:22:54;;;;;;;5.75;1.30;;;9.00;99.90;;;;;;5070236;28;20066;-84
2023/03/25 02:25:38;;;;;;;6.90;1.45;;;8.90;99.90;;;;;;5068645;28;20106;-84
2023/03/25 02:28:28;;;;;;;10.20;1.90;;;8.80;99.90;;;;;;5070416;28;20032;-84
2023/03/25 02:31:09;;;;;;;6.85;1.55;;;8.70;99.90;;;;;;5067628;28;20070;-85
2023/03/25 02:34:19;;;;;;;7.75;2.10;;;8.70;99.90;;;;;;5065366;28;20107;-84
2023/03/25 02:36:55;;;;;;;7.05;1.98;;;8.70;99.90;;;;;;5057485;28;20080;-85
2023/03/25 02:40:19;;;;;;;7.30;2.17;;;8.60;99.90;;;;;;5066770;28;20036;-85
2023/03/25 02:43:10;;;;;;;8.32;2.33;;;8.60;99.90;;;;;;5033092;28;20654;-85
2023/03/25 02:45:43;;;;;;;7.97;2.22;;;8.50;99.90;;;;;;5068791;28;20055;-85
2023/03/25 02:48:16;;;;;;;5.07;1.98;;;8.50;99.90;;;;;;5065980;28;20024;-85
2023/03/25 02:50:44;;;;;;;;;;;8.40;99.90;;;;;;5058470;28;20028;-84
2023/03/25 02:53:15;;;;;;;6.25;2.65;;;8.40;99.90;;;;;;5069448;28;19916;-83
2023/03/25 02:55:43;;;;;;;8.40;2.60;;;8.40;99.90;;;;;;5063094;28;21891;-84
2023/03/25 02:58:15;;;;;;;6.10;2.40;;;8.40;99.90;;;;;;5068778;28;20021;-83
2023/03/25 03:00:41;;;;;;;6.38;2.17;;;8.50;99.90;;;;;;5084890;28;20032;-84
2023/03/25 03:03:07;;;;;;;5.72;2.38;;;8.50;99.90;;;;;;5066422;28;20072;-84
2023/03/25 03:05:38;;;;;;;8.10;2.53;;;8.50;99.90;;;;;;5060898;28;20090;-83
2023/03/25 03:08:42;;;;;;;7.53;2.45;;;8.50;99.90;;;;;;5058338;28;20209;-84
2023/03/25 03:11:21;;;;;;;6.68;2.58;;;8.50;99.90;;;;;;5065330;28;20115;-84
2023/03/25 03:13:59;;;;;;;7.15;2.55;;;8.40;99.90;;;;;;5083465;28;20114;-85
2023/03/25 03:16:50;;;;;;;6.57;2.00;;;8.40;99.90;;;;;;5066811;28;20461;-84
2023/03/25 03:19:37;;;;;;;6.15;1.70;;;8.30;99.90;;;;;;5059874;28;20036;-84
2023/03/25 03:22:34;;;;;;;5.60;1.90;;;8.20;99.90;;;;;;5058847;28;20025;-83
2023/03/25 03:25:21;;;;;;;7.03;2.55;;;8.10;99.90;;;;;;5060882;28;20089;-84
2023/03/25 03:27:53;;;;;;;4.32;2.60;;;8.10;99.90;;;;;;5062706;28;20390;-84
2023/03/25 03:30:37;;;;;;;7.95;2.28;;;8.10;99.90;;;;;;5058852;28;20031;-83
2023/03/25 03:33:14;;;;;;;6.40;2.53;;;8.10;99.90;;;;;;5066354;28;20036;-83
2023/03/25 03:35:48;;;;;;;8.68;3.13;;;8.20;99.90;;;;;;5063548;28;20097;-84
2023/03/25 03:38:16;;;;;;;10.05;3.38;;;8.20;99.90;;;;;;5066173;28;20047;-83
2023/03/25 03:40:47;;;;;;;7.80;3.00;;;8.20;99.90;;;;;;5060080;28;20025;-84
2023/03/25 03:43:24;;;;;;;8.38;3.17;;;8.20;99.90;;;;;;5071873;28;20032;-84
2023/03/25 03:45:53;;;;;;;6.57;2.70;;;8.10;99.90;;;;;;5060555;28;20025;-83
2023/03/25 03:48:24;;;;;;;6.85;2.25;;;8.10;99.90;;;;;;5066483;28;20449;-83
2023/03/25 03:50:55;;;;;;;13.45;3.88;;;8.10;99.90;;;;;;5066866;28;20486;-84
2023/03/25 03:53:44;;;;;;;8.70;2.70;;;8.10;99.90;;;;;;5059524;28;20024;-85
2023/03/25 03:56:24;;;;;;;9.82;3.08;;;8.00;99.90;;;;;;5080689;28;20430;-85
2023/03/25 03:58:53;;;;;;;7.93;2.70;;;8.10;99.90;;;;;;5065257;28;20116;-84
2023/03/25 04:01:29;;;;;;;6.90;2.58;;;8.10;99.90;;;;;;5066004;28;20016;-85
2023/03/25 04:04:20;;;;;;;9.05;3.28;;;8.10;99.90;;;;;;5064592;28;20049;-84
2023/03/25 04:07:00;;;;;;;7.75;2.92;;;8.10;99.90;;;;;;5057045;28;20044;-84
2023/03/25 04:09:54;;;;;;;8.60;3.45;;;8.20;99.90;;;;;;5065547;28;20158;-84
2023/03/25 04:12:26;;;;;;;11.15;3.20;;;8.20;99.90;;;;;;5064657;28;20143;-84
2023/03/25 04:14:53;;;;;;;7.95;2.50;;;8.20;99.90;;;;;;5064554;28;20107;-83
2023/03/25 04:17:19;;;;;;;9.75;3.30;;;8.20;99.90;;;;;;5065260;28;20913;-84
2023/03/25 04:19:47;;;;;;;9.00;3.50;;;8.20;99.90;;;;;;5064420;28;20033;-84
2023/03/25 04:22:16;;;;;;;10.43;3.05;;;8.30;99.90;;;;;;5061990;28;20028;-84
2023/03/25 04:24:42;;;;;;;12.10;3.30;;;8.30;99.90;;;;;;5065036;28;20055;-84
2023/03/25 04:27:12;;;;;;;8.18;3.05;;;8.20;99.90;;;;;;5062450;28;20032;-84
2023/03/25 04:29:39;;;;;;;8.82;3.00;;;8.30;99.90;;;;;;5057968;28;20020;-84
2023/03/25 04:32:05;;;;;;;10.15;3.40;;;8.30;99.90;;;;;;5063364;28;20028;-84
2023/03/25 04:34:31;;;;;;;12.00;3.42;;;8.30;99.90;;;;;;5058806;28;20021;-83
2023/03/25 04:36:57;;;;;;;9.05;2.55;;;8.30;99.90;;;;;;5063729;28;20025;-85
2023/03/25 04:39:23;;;;;;;8.40;2.92;;;8.30;99.90;;;;;;5063691;28;20016;-84
2023/03/25 04:41:49;;;;;;;10.35;2.92;;;8.30;99.90;;;;;;5062416;28;20029;-84
2023/03/25 04:44:16;;;;;;;8.38;3.13;;;8.20;99.90;;;;;;5058400;28;20029;-84
2023/03/25 04:46:42;;;;;;;12.27;2.97;;;8.20;99.90;;;;;;5058968;28;20040;-84
2023/03/25 04:49:17;;;;;;;11.52;3.35;;;8.20;99.90;;;;;;5058571;28;20797;-84
2023/03/25 04:51:43;;;;;;;9.75;3.00;;;8.20;99.90;;;;;;5064347;28;20025;-84
2023/03/25 04:54:10;;;;;;;10.70;2.85;;;8.20;99.90;;;;;;5063785;28;20035;-84
2023/03/25 04:56:36;;;;;;;10.05;2.97;;;8.20;99.90;;;;;;5062660;28;20393;-84
2023/03/25 04:59:03;;;;;;;14.95;4.15;;;8.20;99.90;;;;;;5063187;28;20023;-85
2023/03/25 05:01:31;;;;;;;10.57;2.67;;;8.20;99.90;;;;;;5064787;28;20074;-85
2023/03/25 05:04:05;;;;;;;11.13;2.78;;;8.30;99.90;;;;;;5063575;28;20220;-84
2023/03/25 05:06:37;;;;;;;8.73;2.30;;;8.30;99.90;;;;;;5063960;28;20119;-85
2023/03/25 05:09:04;;;;;;;9.88;2.90;;;8.30;99.90;;;;;;5062887;28;20021;-86
2023/03/25 05:11:31;;;;;;;7.20;2.55;;;8.30;99.90;;;;;;5061584;28;20058;-86
2023/03/25 05:13:57;;;;;;;10.70;2.28;;;8.40;99.90;;;;;;5058199;28;20040;-85
2023/03/25 05:16:22;;;;;;;11.63;2.90;;;8.40;99.90;;;;;;5063781;28;20028;-84
2023/03/25 05:18:48;;;;;;;9.27;2.88;;;8.50;99.90;;;;;;5061865;28;20025;-85
2023/03/25 05:21:14;;;;;;;10.60;3.15;;;8.50;99.90;;;;;;5057422;28;20511;-85
2023/03/25 05:23:40;;;;;;;8.80;2.30;;;8.50;99.90;;;;;;5056062;28;20078;-85
2023/03/25 05:26:07;;;;;;;9.13;2.85;;;8.60;99.90;;;;;;5061359;28;20032;-85
2023/03/25 05:28:34;;;;;;;10.20;2.85;;;8.50;99.90;;;;;;5064083;28;20111;-86
2023/03/25 05:31:00;;;;;;;7.68;2.83;;;8.60;99.90;;;;;;5057151;28;20173;-85
2023/03/25 05:33:26;;;;;;;9.40;2.85;;;8.60;99.90;;;;;;5063451;28;20120;-85
2023/03/25 05:35:51;;;;;;;7.97;2.55;;;8.60;99.90;;;;;;5064046;28;20017;-85
2023/03/25 05:38:17;;;;;;;6.10;2.58;;;8.60;99.90;;;;;;5060144;28;20052;-85
2023/03/25 05:40:47;;;;;;;11.15;2.88;;;8.60;99.90;;;;;;5056153;28;20056;-85
2023/03/25 05:43:21;;;;;;;9.25;2.92;;;8.60;99.90;;;;;;5056503;28;20116;-85
2023/03/25 05:45:47;;;;;;;8.00;2.53;;;8.60;99.90;;;;;;5063555;28;20029;-85
2023/03/25 05:48:13;;;;;;;6.78;2.60;;;8.60;99.90;;;;;;5078402;28;20036;-85
2023/03/25 05:50:41;;;;;;;7.32;2.38;;;8.60;99.90;;;;;;5063922;28;20028;-84
2023/03/25 05:53:12;;;;;;;5.65;2.58;;;8.60;99.90;;;;;;5054704;28;20032;-85
2023/03/25 05:55:39;;;;;;;8.15;2.90;;;8.60;99.90;;;;;;5063217;28;20028;-85
2023/03/25 05:58:05;;;;;;;10.82;3.13;;;8.60;99.90;;;;;;5056358;28;20125;-85
2023/03/25 06:00:31;;;;;;;7.65;2.60;;;8.60;99.90;;;;;;5057392;28;20105;-85
2023/03/25 06:02:57;;;;;;;11.27;3.17;;;8.50;99.90;;;;;;5063343;28;20501;-85
2023/03/25 06:05:24;;;;;;;8.65;2.95;;;8.50;99.90;;;;;;5054522;28;20040;-85
2023/03/25 06:07:54;;;;;;;9.10;3.08;;;8.50;99.90;;;;;;5063429;28;20596;-84
2023/03/25 06:10:21;;;;;;;8.75;3.20;;;8.40;99.90;;;;;;5060919;28;20025;-85
2023/03/25 06:12:47;;;;;;;8.75;3.30;;;8.40;99.90;;;;;;5055537;28;20032;-85
2023/03/25 06:15:20;;;;;;;10.13;2.80;;;8.40;99.90;;;;;;5061519;28;20112;-85
2023/03/25 06:17:46;;;;;;;7.45;3.10;;;8.50;99.90;;;;;;5055449;28;20037;-86
2023/03/25 06:20:15;;;;;;;7.72;3.70;;;8.50;99.90;;;;;;5061027;28;20039;-86
2023/03/25 06:22:43;;;;;;;10.60;3.35;;;8.40;99.90;;;;;;5062925;28;20439;-84
2023/03/25 06:25:10;;;;;;;15.57;3.80;;;8.30;99.90;;;;;;5053785;28;20021;-84
2023/03/25 06:27:39;;;;;;;12.77;4.32;;;8.20;99.90;;;;;;5062317;28;20048;-85
2023/03/25 06:30:10;;;;;;;9.95;3.47;;;8.20;99.90;;;;;;5082438;28;20074;-85
2023/03/25 06:32:36;;;;;;;10.52;3.92;;;8.20;99.90;;;;;;5064563;28;20064;-84
2023/03/25 06:35:03;;;;;;;14.90;4.45;;;8.20;99.90;;;;;;5067259;28;20112;-84
2023/03/25 06:37:28;;;;;;;12.05;4.38;;;8.20;99.90;;;;;;5059714;28;20028;-85
2023/03/25 06:39:55;;;;;;;13.80;4.97;;;8.20;99.90;;;;;;5065543;28;20035;-84
2023/03/25 06:42:22;;;;;;;12.27;4.68;;;8.30;99.90;;;;;;5066392;28;20558;-84
2023/03/25 06:44:48;;;;;;;7.97;3.85;;;8.30;99.90;;;;;;5067125;28;20492;-85
2023/03/25 06:47:14;;;;;;;11.20;4.22;;;8.40;99.90;;;;;;5082415;28;20044;-84
2023/03/25 06:49:40;;;;;;;13.55;4.53;;;8.40;99.90;;;;;;5064449;28;20034;-85
2023/03/25 06:52:05;;;;;;;11.48;4.40;;;8.40;99.90;;;;;;5060864;28;20070;-86
2023/03/25 06:54:31;;;;;;;11.77;3.88;;;8.50;99.90;;;;;;5058525;28;20024;-85
2023/03/25 06:56:56;;;;;;;10.68;3.70;;;8.50;99.90;;;;;;5058843;28;20082;-85
2023/03/25 06:59:22;;;;;;;12.07;4.55;;;8.50;99.90;;;;;;5066655;28;20025;-85
2023/03/25 07:01:48;;;;;;;13.70;4.18;;;8.50;99.90;;;;;;5059923;28;20477;-85
2023/03/25 07:04:13;;;;;;;11.32;3.50;;;8.60;99.90;;;;;;5071615;28;20056;-85
2023/03/25 07:06:39;;;;;;;13.85;3.30;;;8.60;99.90;;;;;;5066232;28;20043;-85
2023/03/25 07:09:05;;;;;;;11.43;3.20;;;8.70;99.90;;;;;;5066323;28;20031;-85
2023/03/25 07:11:32;;;;;;;9.60;2.97;;;8.80;99.90;;;;;;5061626;28;20558;-85
2023/03/25 07:13:58;;;;;;;11.90;3.30;;;8.80;99.90;;;;;;5064033;28;20429;-85
2023/03/25 07:16:25;;;;;;;9.48;2.92;;;8.90;99.90;;;;;;5080713;28;20455;-85
2023/03/25 07:18:50;;;;;;;11.02;2.75;;;9.00;99.90;;;;;;5059409;28;20024;-85
2023/03/25 07:21:17;;;;;;;13.35;3.15;;;9.00;99.90;;;;;;5064972;28;20539;-85
2023/03/25 07:23:42;;;;;;;14.68;3.92;;;8.90;99.90;;;;;;5064354;28;20035;-85
2023/03/25 07:26:08;;;;;;;13.43;3.45;;;8.80;99.90;;;;;;5065494;28;20024;-86
2023/03/25 07:28:34;;;;;;;10.10;2.58;;;8.70;99.90;;;;;;5058282;28;21009;-85
2023/03/25 07:30:59;;;;;;;15.38;3.35;;;8.60;99.90;;;;;;5059096;28;20028;-84
2023/03/25 07:33:25;;;;;;;15.95;4.00;;;8.50;99.90;;;;;;5063787;28;20200;-83
2023/03/25 07:35:51;;;;;;;10.68;3.15;;;8.40;99.90;;;;;;5065119;28;20474;-84
2023/03/25 07:38:17;;;;;;;12.65;4.72;;;8.40;99.90;;;;;;5064137;28;20067;-84
2023/03/25 07:40:43;;;;;;;15.48;3.75;;;8.40;99.90;;;;;;5081701;28;20443;-84
2023/03/25 07:43:08;;;;;;;11.43;3.72;;;8.50;99.90;;;;;;5059596;28;20060;-85
2023/03/25 07:45:34;;;;;;;14.88;4.97;;;8.50;99.90;;;;;;5063231;28;20025;-85
2023/03/25 07:48:00;;;;;;;12.30;3.90;;;8.50;99.90;;;;;;5057835;28;20151;-85
2023/03/25 07:50:26;;;;;;;12.10;3.97;;;8.60;99.90;;;;;;5062809;28;20611;-86
2023/03/25 07:52:52;;;;;;;13.00;4.15;;;8.60;99.90;;;;;;5071304;28;20033;-85
2023/03/25 07:55:18;;;;;;;17.02;5.40;;;8.50;99.90;;;;;;5062833;28;20432;-84
2023/03/25 07:57:44;;;;;;;14.43;3.72;;;8.40;99.90;;;;;;5065436;28;20093;-84
2023/03/25 08:00:10;;;;;;;16.08;4.70;;;8.40;99.90;;;;;;5062730;28;20020;-84
2023/03/25 08:02:36;;;;;;;12.82;4.20;;;8.40;99.90;;;;;;5062435;28;20052;-83
2023/03/25 08:05:04;;;;;;;12.30;3.78;;;8.50;99.90;;;;;;5063880;28;20490;-84
2023/03/25 08:07:30;;;;;;;11.70;3.88;;;8.40;99.90;;;;;;5065161;28;20032;-84
2023/03/25 08:09:56;;;;;;;13.70;4.30;;;8.40;99.90;;;;;;5065221;28;20466;-84
2023/03/25 08:12:21;;;;;;;13.55;3.53;;;8.30;99.90;;;;;;5064884;28;20082;-84
2023/03/25 08:14:47;;;;;;;18.00;4.13;;;8.20;99.90;;;;;;5063933;28;20017;-84
2023/03/25 08:17:12;;;;;;;15.38;4.43;;;8.20;99.90;;;;;;5064801;28;20048;-85
2023/03/25 08:19:38;;;;;;;18.85;4.30;;;8.30;99.90;;;;;;5063786;28;20016;-84
2023/03/25 08:22:03;;;;;;;11.35;4.57;;;8.40;99.90;;;;;;5065029;28;20024;-84
2023/03/25 08:24:31;;;;;;;15.38;4.35;;;8.50;99.90;;;;;;5058102;28;20028;-84
2023/03/25 08:26:59;;;;;;;21.08;4.43;;;8.60;99.90;;;;;;5062818;28;20899;-84
2023/03/25 08:29:26;;;;;;;13.15;3.53;;;8.80;99.90;;;;;;5061882;28;20604;-84
2023/03/25 08:31:52;;;;;;;17.85;4.18;;;8.90;99.90;;;;;;5065417;28;20028;-84
2023/03/25 08:34:19;;;;;;;16.95;3.95;;;9.00;99.90;;;;;;5058833;28;20024;-84
2023/03/25 08:36:45;;;;;;;13.18;3.60;;;9.00;99.90;;;;;;5080737;28;20473;-83
2023/03/25 08:39:11;;;;;;;16.25;3.28;;;9.20;99.90;;;;;;5064527;28;20020;-84
2023/03/25 08:41:37;;;;;;;25.52;4.72;;;9.20;99.90;;;;;;5057634;28;20024;-83
2023/03/25 08:44:04;;;;;;;14.93;3.72;;;9.20;99.90;;;;;;5057161;28;20052;-84
2023/03/25 08:46:30;;;;;;;13.63;3.35;;;9.30;99.90;;;;;;5064783;28;20532;-83
2023/03/25 08:48:55;;;;;;;12.40;3.08;;;9.30;99.90;;;;;;5064755;28;20028;-84
2023/03/25 08:51:21;;;;;;;14.73;3.28;;;9.20;99.90;;;;;;5062001;28;20027;-85
2023/03/25 08:53:47;;;;;;;14.93;3.35;;;9.10;99.90;;;;;;5071242;28;20035;-84
2023/03/25 08:56:13;;;;;;;16.15;3.92;;;9.10;99.90;;;;;;5064388;28;20540;-84
2023/03/25 08:58:38;;;;;;;11.85;3.20;;;9.20;99.90;;;;;;5055942;28;20114;-84
2023/03/25 09:01:05;;;;;;;13.60;3.78;;;9.10;99.90;;;;;;5062433;28;20028;-85
2023/03/25 09:03:31;;;;;;;24.05;3.92;;;9.10;99.90;;;;;;5064269;28;20037;-84
2023/03/25 09:05:57;;;;;;;15.70;3.85;;;9.00;99.90;;;;;;5062097;28;20729;-84
2023/03/25 09:08:23;;;;;;;13.25;3.97;;;9.00;99.90;;;;;;5062937;28;20067;-84
2023/03/25 09:10:49;;;;;;;11.23;3.00;;;9.00;99.90;;;;;;5056708;28;20031;-85
2023/03/25 09:13:14;;;;;;;15.45;3.75;;;9.00;99.90;;;;;;5057955;28;20047;-85
2023/03/25 09:15:40;;;;;;;14.70;3.38;;;9.10;99.90;;;;;;5079201;28;20020;-84
2023/03/25 09:18:06;;;;;;;14.30;3.40;;;9.10;99.90;;;;;;5064609;28;20433;-85
2023/03/25 09:20:32;;;;;;;21.73;3.83;;;9.20;99.90;;;;;;5068195;28;20020;-85
2023/03/25 09:22:58;;;;;;;15.75;3.17;;;9.20;99.90;;;;;;5063494;28;20017;-86
2023/03/25 09:25:24;;;;;;;13.50;2.40;;;9.30;99.90;;;;;;5056188;28;20074;-84
2023/03/25 09:28:09;;;;;;;14.40;3.17;;;9.30;99.90;;;;;;5057104;28;20033;-84
2023/03/25 09:30:34;;;;;;;14.50;2.83;;;9.30;99.90;;;;;;5062412;28;20056;-85
2023/03/25 09:33:00;;;;;;;16.60;4.78;;;9.20;99.90;;;;;;5064083;28;20064;-85
2023/03/25 09:35:26;;;;;;;27.48;4.97;;;9.20;99.90;;;;;;5057567;28;20478;-85
2023/03/25 09:37:51;;;;;;;16.90;3.55;;;9.10;99.90;;;;;;5061235;28;20033;-87
2023/03/25 09:40:19;;;;;;;19.33;3.83;;;9.10;99.90;;;;;;5063797;28;20153;-86
2023/03/25 09:42:59;;;;;;;19.63;4.55;;;9.20;99.90;;;;;;5061365;28;20027;-87
2023/03/25 09:45:35;;;;;;;26.00;4.82;;;9.50;99.90;;;;;;5062318;28;20032;-85
2023/03/25 09:48:31;;;;;;;21.83;4.38;;;9.70;99.90;;;;;;5058458;28;20040;-86
2023/03/25 09:51:03;;;;;;;23.92;4.80;;;9.80;99.90;;;;;;5057810;28;20033;-86
2023/03/25 09:53:43;;;;;;;15.75;4.15;;;10.20;99.90;;;;;;5062320;28;20021;-85
2023/03/25 09:56:16;;;;;;;20.42;3.55;;;10.10;99.90;;;;;;5077018;28;20028;-85
2023/03/25 09:58:43;;;;;;;16.02;4.20;;;9.90;99.90;;;;;;5061540;28;20032;-84
2023/03/25 10:01:22;;;;;;;19.80;4.45;;;9.90;99.90;;;;;;5057160;28;20036;-86
2023/03/25 10:04:00;;;;;;;23.38;4.43;;;10.00;99.90;;;;;;5076153;28;20044;-84
2023/03/25 10:06:26;;;;;;;17.73;3.70;;;10.60;99.90;;;;;;5054168;28;20041;-86
2023/03/25 10:09:21;;;;;;;16.85;4.20;;;11.20;99.90;;;;;;5053852;28;20024;-88
2023/03/25 10:12:05;;;;;;;15.43;3.47;;;12.00;99.90;;;;;;5053560;28;20442;-87
2023/03/25 10:14:44;;;;;;;19.05;3.65;;;12.60;99.90;;;;;;5065699;28;20076;-86
2023/03/25 10:17:34;;;;;;;16.55;3.60;;;12.50;99.90;;;;;;5057316;28;20925;-85
2023/03/25 10:20:11;;;;;;;18.33;4.05;;;12.00;99.90;;;;;;5061395;28;20039;-86
2023/03/25 10:23:01;;;;;;;15.18;2.78;;;11.60;99.90;;;;;;5064150;28;20035;-86
2023/03/25 10:25:30;;;;;;;13.52;3.08;;;11.10;99.90;;;;;;5061002;28;20029;-86
2023/03/25 10:27:57;;;;;;;17.45;3.22;;;10.80;99.90;;;;;;5064649;28;20040;-86
2023/03/25 10:30:41;;;;;;;19.52;3.53;;;10.70;99.90;;;;;;5074868;28;20029;-85
2023/03/25 10:33:35;;;;;;;15.25;2.88;;;10.40;99.90;;;;;;5054570;28;20035;-86
2023/03/25 10:36:03;;;;;;;26.13;4.70;;;10.10;99.90;;;;;;5060645;28;20040;-84
2023/03/25 10:38:32;;;;;;;14.93;3.90;;;9.80;99.90;;;;;;5051867;28;20515;-85
2023/03/25 10:41:19;;;;;;;14.18;3.13;;;9.60;99.90;;;;;;5076334;28;20036;-85
2023/03/25 10:43:45;;;;;;;22.02;5.13;;;9.60;99.90;;;;;;5063607;28;20028;-87
2023/03/25 10:46:46;;;;;;;18.15;4.03;;;9.80;99.90;;;;;;5063037;28;20073;-86
2023/03/25 10:49:15;;;;;;;17.63;3.67;;;9.70;99.90;;;;;;5062670;28;20056;-85
2023/03/25 10:51:42;;;;;;;16.85;3.60;;;9.60;99.90;;;;;;5060755;28;20108;-84
2023/03/25 10:54:11;;;;;;;16.75;3.28;;;9.50;99.90;;;;;;5057852;28;20359;-86
2023/03/25 10:56:44;;;;;;;18.23;3.22;;;9.30;99.90;;;;;;5056892;28;20102;-86
2023/03/25 10:59:36;;;;;;;14.63;3.70;;;9.10;99.90;;;;;;5075021;28;20043;-85
2023/03/25 11:02:25;;;;;;;19.85;3.75;;;9.20;99.90;;;;;;5075454;28;20028;-85
2023/03/25 11:05:01;;;;;;;19.05;3.92;;;9.30;99.90;;;;;;5052609;28;20053;-85
2023/03/25 11:07:29;;;;;;;16.55;3.13;;;9.40;99.90;;;;;;5060375;28;20098;-83
2023/03/25 11:10:17;;;;;;;20.45;3.35;;;9.40;99.90;;;;;;5061195;28;20094;-85
2023/03/25 11:12:50;;;;;;;15.27;3.45;;;9.60;99.90;;;;;;5054560;28;20039;-84
2023/03/25 11:15:30;;;;;;;18.20;3.55;;;9.60;99.90;;;;;;5082443;28;20113;-86
2023/03/25 11:18:14;;;;;;;21.02;3.05;;;9.60;99.90;;;;;;5080753;28;20044;-85
2023/03/25 11:20:47;;;;;;;18.63;3.03;;;9.50;99.90;;;;;;5062364;28;20475;-85
2023/03/25 11:23:30;;;;;;;13.50;2.72;;;9.50;99.90;;;;;;5061169;28;20032;-86
2023/03/25 11:26:05;;;;;;;20.67;4.32;;;9.40;99.90;;;;;;5065255;28;20060;-85
2023/03/25 11:28:43;;;;;;;14.75;2.72;;;9.40;99.90;;;;;;5062547;28;20448;-84
2023/03/25 11:31:12;;;;;;;19.85;3.70;;;9.50;99.90;;;;;;5078346;28;20476;-85
2023/03/25 11:33:39;;;;;;;20.23;4.25;;;9.90;99.90;;;;;;5060684;28;20094;-84
2023/03/25 11:36:28;;;;;;;22.15;3.90;;;10.30;99.90;;;;;;5054108;28;20025;-86
2023/03/25 11:39:07;;;;;;;15.57;3.47;;;10.50;99.90;;;;;;5062049;28;20424;-84
2023/03/25 11:41:35;;;;;;;14.95;3.33;;;10.80;99.90;;;;;;5062409;28;20025;-85
2023/03/25 11:44:04;;;;;;;19.65;3.22;;;10.90;99.90;;;;;;5060278;28;20073;-85
2023/03/25 11:46:30;;;;;;;16.48;2.55;;;10.80;99.90;;;;;;5063229;28;20039;-84
2023/03/25 11:48:55;;;;;;;17.95;2.70;;;10.70;99.90;;;;;;5062628;28;20039;-84
2023/03/25 11:51:25;;;;;;;14.77;2.58;;;10.70;99.90;;;;;;5054598;28;20048;-84
2023/03/25 11:53:58;;;;;;;15.43;2.30;;;10.70;99.90;;;;;;5061578;28;20038;-86
2023/03/25 11:56:31;;;;;;;15.80;2.55;;;10.80;99.90;;;;;;5062564;28;20023;-83
2023/03/25 11:59:00;;;;;;;8.68;2.00;;;11.10;99.90;;;;;;5077425;28;20034;-84
2023/03/25 12:01:39;;;;;;;14.55;2.22;;;11.60;99.90;;;;;;5056267;28;20040;-85
2023/03/25 12:04:11;;;;;;;19.08;2.75;;;12.00;99.90;;;;;;5062499;28;20070;-84
2023/03/25 12:06:52;;;;;;;12.18;2.53;;;12.20;99.90;;;;;;5062051;28;20055;-84
2023/03/25 12:09:18;;;;;;;15.93;3.40;;;12.30;99.90;;;;;;5062600;28;20099;-84
2023/03/25 12:11:44;;;;;;;11.50;2.42;;;12.40;99.90;;;;;;5059792;28;20042;-86
2023/03/25 12:14:23;;;;;;;13.88;2.10;;;12.50;99.90;;;;;;5061576;28;20139;-83
2023/03/25 12:17:27;;;;;;;15.73;2.10;;;12.30;99.90;;;;;;5077140;28;20024;-84
2023/03/25 12:20:22;;;;;;;14.52;2.72;;;12.20;99.90;;;;;;5062680;28;20106;-85
2023/03/25 12:22:57;;;;;;;15.63;2.42;;;11.90;99.90;;;;;;5062197;28;20086;-83
2023/03/25 12:25:28;;;;;;;16.27;3.03;;;12.10;99.90;;;;;;5075834;28;20036;-83
2023/03/25 12:28:25;;;;;;;12.60;2.33;;;12.10;99.90;;;;;;5061310;28;20036;-84
2023/03/25 12:30:56;;;;;;;12.75;2.08;;;11.90;99.90;;;;;;5075332;28;20031;-84
2023/03/25 12:33:40;;;;;;;13.35;2.20;;;11.70;99.90;;;;;;5053897;28;20604;-84
2023/03/25 12:36:24;;;;;;;12.98;2.25;;;11.70;99.90;;;;;;5075021;28;20115;-84
2023/03/25 12:39:16;;;;;;;11.43;1.67;;;11.70;99.90;;;;;;5061248;28;20486;-83
2023/03/25 12:41:53;;;;;;;12.77;2.53;;;12.30;99.90;;;;;;5058852;28;20029;-85
2023/03/25 12:44:57;;;;;;;10.00;1.60;;;13.20;99.90;;;;;;5062230;28;20631;-84
2023/03/25 12:47:33;;;;;;;11.40;2.30;;;13.60;99.90;;;;;;5059615;28;20044;-84
2023/03/25 12:50:08;;;;;;;14.07;2.92;;;13.40;99.90;;;;;;5053932;28;20111;-84
2023/03/25 12:53:12;;;;;;;9.18;2.13;;;13.00;99.90;;;;;;5063144;28;20673;-84
2023/03/25 12:56:00;;;;;;;6.25;1.33;;;12.30;99.90;;;;;;5053450;28;20036;-84
2023/03/25 12:58:35;;;;;;;9.00;1.52;;;11.30;99.90;;;;;;5054806;28;20033;-84
2023/03/25 13:01:27;;;;;;;5.13;0.93;;;10.40;99.90;;;;;;5061916;28;20031;-84
2023/03/25 13:04:05;;;;;;;8.75;1.75;;;9.70;99.90;;;;;;5062223;28;20066;-84
2023/03/25 13:06:35;;;;;;;7.22;1.70;;;9.30;99.90;;;;;;5063187;28;20044;-83
2023/03/25 13:09:11;;;;;;;7.70;1.58;;;9.00;99.90;;;;;;5062661;28;20094;-83
2023/03/25 13:11:39;;;;;;;9.32;1.48;;;9.00;99.90;;;;;;5062801;28;20033;-84
2023/03/25 13:14:23;;;;;;;7.43;1.73;;;9.80;99.90;;;;;;5066112;28;20043;-84